sensor_id;sensor_type;location;lat;lon;timestamp;temperature;humidity
12907;DHT22;6521;50.498;8.474;2023-08-30T00:00:02;12.52;90.96
12907;DHT22;6521;50.498;8.474;2023-08-30T00:02:37;12.54;90.97
12907;DHT22;6521;50.498;8.474;2023-08-30T00:05:07;12.54;90.97
12907;DHT22;6521;50.498;8.474;2023-08-30T00:07:40;12.54;91.01
12907;DHT22;6521;50.498;8.474;2023-08-30T00:10:10;12.54;90.93
12907;DHT22;6521;50.498;8.474;2023-08-30T00:12:41;12.55;91.01
12907;DHT22;6521;50.498;8.474;2023-08-30T00:15:12;12.52;91.00
12907;DHT22;6521;50.498;8.474;2023-08-30T00:17:42;12.55;90.97
12907;DHT22;6521;50.498;8.474;2023-08-30T00:20:13;12.55;90.96
12907;DHT22;6521;50.498;8.474;2023-08-30T00:22:44;12.51;90.94
12907;DHT22;6521;50.498;8.474;2023-08-30T00:25:15;12.55;90.88
12907;DHT22;6521;50.498;8.474;2023-08-30T00:27:47;12.52;90.82
12907;DHT22;6521;50.498;8.474;2023-08-30T00:30:20;12.51;90.78
12907;DHT22;6521;50.498;8.474;2023-08-30T00:32:50;12.46;90.77
12907;DHT22;6521;50.498;8.474;2023-08-30T00:35:21;12.48;90.87
12907;DHT22;6521;50.498;8.474;2023-08-30T00:37:52;12.51;90.98
12907;DHT22;6521;50.498;8.474;2023-08-30T00:40:23;12.51;90.98
12907;DHT22;6521;50.498;8.474;2023-08-30T00:42:56;12.55;91.03
12907;DHT22;6521;50.498;8.474;2023-08-30T00:45:27;12.55;91.02
12907;DHT22;6521;50.498;8.474;2023-08-30T00:47:58;12.56;90.82
12907;DHT22;6521;50.498;8.474;2023-08-30T00:50:29;12.51;90.76
12907;DHT22;6521;50.498;8.474;2023-08-30T00:53:00;12.51;90.80
12907;DHT22;6521;50.498;8.474;2023-08-30T00:55:38;12.49;90.74
12907;DHT22;6521;50.498;8.474;2023-08-30T00:58:10;12.52;90.78
12907;DHT22;6521;50.498;8.474;2023-08-30T01:00:41;12.52;90.79
12907;DHT22;6521;50.498;8.474;2023-08-30T01:03:14;12.52;90.85
12907;DHT22;6521;50.498;8.474;2023-08-30T01:05:47;12.61;90.81
12907;DHT22;6521;50.498;8.474;2023-08-30T01:08:20;12.58;90.74
12907;DHT22;6521;50.498;8.474;2023-08-30T01:11:03;12.58;90.68
12907;DHT22;6521;50.498;8.474;2023-08-30T01:13:41;12.61;90.62
12907;DHT22;6521;50.498;8.474;2023-08-30T01:16:12;12.62;90.59
12907;DHT22;6521;50.498;8.474;2023-08-30T01:18:44;12.62;90.66
12907;DHT22;6521;50.498;8.474;2023-08-30T01:21:27;12.62;90.75
12907;DHT22;6521;50.498;8.474;2023-08-30T01:24:01;12.64;90.71
12907;DHT22;6521;50.498;8.474;2023-08-30T01:26:42;12.65;90.54
12907;DHT22;6521;50.498;8.474;2023-08-30T01:29:16;12.61;90.39
12907;DHT22;6521;50.498;8.474;2023-08-30T01:31:48;12.56;90.23
12907;DHT22;6521;50.498;8.474;2023-08-30T01:34:19;12.51;90.31
12907;DHT22;6521;50.498;8.474;2023-08-30T01:36:50;12.45;90.35
12907;DHT22;6521;50.498;8.474;2023-08-30T01:39:22;12.45;90.42
12907;DHT22;6521;50.498;8.474;2023-08-30T01:41:53;12.42;90.44
12907;DHT22;6521;50.498;8.474;2023-08-30T01:44:30;12.42;90.54
12907;DHT22;6521;50.498;8.474;2023-08-30T01:47:01;12.38;90.51
12907;DHT22;6521;50.498;8.474;2023-08-30T01:49:33;12.33;90.66
12907;DHT22;6521;50.498;8.474;2023-08-30T01:52:06;12.28;90.64
12907;DHT22;6521;50.498;8.474;2023-08-30T01:54:38;12.30;90.85
12907;DHT22;6521;50.498;8.474;2023-08-30T01:57:10;12.33;90.96
12907;DHT22;6521;50.498;8.474;2023-08-30T01:59:41;12.35;90.95
12907;DHT22;6521;50.498;8.474;2023-08-30T02:02:11;12.40;90.96
12907;DHT22;6521;50.498;8.474;2023-08-30T02:04:42;12.41;90.96
12907;DHT22;6521;50.498;8.474;2023-08-30T02:07:25;12.41;90.97
12907;DHT22;6521;50.498;8.474;2023-08-30T02:10:02;12.41;90.83
12907;DHT22;6521;50.498;8.474;2023-08-30T02:12:42;12.41;90.75
12907;DHT22;6521;50.498;8.474;2023-08-30T02:15:15;12.42;90.75
12907;DHT22;6521;50.498;8.474;2023-08-30T02:17:48;12.41;90.79
12907;DHT22;6521;50.498;8.474;2023-08-30T02:20:19;12.44;90.88
12907;DHT22;6521;50.498;8.474;2023-08-30T02:22:51;12.46;91.00
12907;DHT22;6521;50.498;8.474;2023-08-30T02:25:21;12.46;91.05
12907;DHT22;6521;50.498;8.474;2023-08-30T02:27:54;12.45;91.02
12907;DHT22;6521;50.498;8.474;2023-08-30T02:30:25;12.45;91.13
12907;DHT22;6521;50.498;8.474;2023-08-30T02:32:57;12.46;91.27
12907;DHT22;6521;50.498;8.474;2023-08-30T02:35:28;12.48;91.31
12907;DHT22;6521;50.498;8.474;2023-08-30T02:37:59;12.51;91.26
12907;DHT22;6521;50.498;8.474;2023-08-30T02:40:30;12.51;91.19
12907;DHT22;6521;50.498;8.474;2023-08-30T02:43:01;12.49;91.05
12907;DHT22;6521;50.498;8.474;2023-08-30T02:45:32;12.42;90.79
12907;DHT22;6521;50.498;8.474;2023-08-30T02:48:03;12.40;90.99
12907;DHT22;6521;50.498;8.474;2023-08-30T02:50:34;12.40;91.14
12907;DHT22;6521;50.498;8.474;2023-08-30T02:53:05;12.37;91.12
12907;DHT22;6521;50.498;8.474;2023-08-30T02:55:38;12.42;91.23
12907;DHT22;6521;50.498;8.474;2023-08-30T02:58:09;12.45;91.29
12907;DHT22;6521;50.498;8.474;2023-08-30T03:00:40;12.49;91.25
12907;DHT22;6521;50.498;8.474;2023-08-30T03:03:12;12.46;91.32
12907;DHT22;6521;50.498;8.474;2023-08-30T03:05:44;12.51;91.27
12907;DHT22;6521;50.498;8.474;2023-08-30T03:08:14;12.48;91.18
12907;DHT22;6521;50.498;8.474;2023-08-30T03:10:45;12.51;91.30
12907;DHT22;6521;50.498;8.474;2023-08-30T03:13:17;12.52;91.31
12907;DHT22;6521;50.498;8.474;2023-08-30T03:15:48;12.54;91.18
12907;DHT22;6521;50.498;8.474;2023-08-30T03:18:19;12.51;91.18
12907;DHT22;6521;50.498;8.474;2023-08-30T03:20:59;12.51;91.23
12907;DHT22;6521;50.498;8.474;2023-08-30T03:23:31;12.56;91.25
12907;DHT22;6521;50.498;8.474;2023-08-30T03:26:13;12.54;91.23
12907;DHT22;6521;50.498;8.474;2023-08-30T03:28:45;12.56;91.08
12907;DHT22;6521;50.498;8.474;2023-08-30T03:31:17;12.51;90.97
12907;DHT22;6521;50.498;8.474;2023-08-30T03:33:49;12.48;91.13
12907;DHT22;6521;50.498;8.474;2023-08-30T03:36:20;12.51;91.36
12907;DHT22;6521;50.498;8.474;2023-08-30T03:38:51;12.56;91.45
12907;DHT22;6521;50.498;8.474;2023-08-30T03:41:22;12.58;91.48
12907;DHT22;6521;50.498;8.474;2023-08-30T03:43:54;12.64;91.56
12907;DHT22;6521;50.498;8.474;2023-08-30T03:46:25;12.64;91.59
12907;DHT22;6521;50.498;8.474;2023-08-30T03:48:57;12.65;91.60
12907;DHT22;6521;50.498;8.474;2023-08-30T03:51:27;12.68;91.58
12907;DHT22;6521;50.498;8.474;2023-08-30T03:53:58;12.71;91.59
12907;DHT22;6521;50.498;8.474;2023-08-30T03:56:29;12.72;91.53
12907;DHT22;6521;50.498;8.474;2023-08-30T03:58:59;12.73;91.45
12907;DHT22;6521;50.498;8.474;2023-08-30T04:01:30;12.72;91.39
12907;DHT22;6521;50.498;8.474;2023-08-30T04:04:01;12.72;91.40
12907;DHT22;6521;50.498;8.474;2023-08-30T04:06:31;12.72;91.37
12907;DHT22;6521;50.498;8.474;2023-08-30T04:09:03;12.68;91.28
12907;DHT22;6521;50.498;8.474;2023-08-30T04:11:33;12.65;91.26
12907;DHT22;6521;50.498;8.474;2023-08-30T04:14:07;12.64;91.19
12907;DHT22;6521;50.498;8.474;2023-08-30T04:16:39;12.61;91.20
12907;DHT22;6521;50.498;8.474;2023-08-30T04:19:12;12.56;91.20
12907;DHT22;6521;50.498;8.474;2023-08-30T04:21:43;12.55;91.15
12907;DHT22;6521;50.498;8.474;2023-08-30T04:24:14;12.49;91.16
12907;DHT22;6521;50.498;8.474;2023-08-30T04:26:45;12.46;91.22
12907;DHT22;6521;50.498;8.474;2023-08-30T04:29:22;12.42;91.34
12907;DHT22;6521;50.498;8.474;2023-08-30T04:31:54;12.44;91.36
12907;DHT22;6521;50.498;8.474;2023-08-30T04:34:26;12.42;91.46
12907;DHT22;6521;50.498;8.474;2023-08-30T04:36:58;12.42;91.45
12907;DHT22;6521;50.498;8.474;2023-08-30T04:39:28;12.40;91.34
12907;DHT22;6521;50.498;8.474;2023-08-30T04:42:01;12.38;91.31
12907;DHT22;6521;50.498;8.474;2023-08-30T04:44:33;12.34;91.29
12907;DHT22;6521;50.498;8.474;2023-08-30T04:47:05;12.31;91.28
12907;DHT22;6521;50.498;8.474;2023-08-30T04:49:40;12.27;91.30
12907;DHT22;6521;50.498;8.474;2023-08-30T04:52:10;12.20;91.37
12907;DHT22;6521;50.498;8.474;2023-08-30T04:54:41;12.18;91.46
12907;DHT22;6521;50.498;8.474;2023-08-30T04:57:14;12.14;91.54
12907;DHT22;6521;50.498;8.474;2023-08-30T04:59:46;12.17;91.59
12907;DHT22;6521;50.498;8.474;2023-08-30T05:02:17;12.16;91.62
12907;DHT22;6521;50.498;8.474;2023-08-30T05:05:08;12.17;91.67
12907;DHT22;6521;50.498;8.474;2023-08-30T05:07:39;12.17;91.67
12907;DHT22;6521;50.498;8.474;2023-08-30T05:10:10;12.21;91.69
12907;DHT22;6521;50.498;8.474;2023-08-30T05:12:40;12.18;91.69
12907;DHT22;6521;50.498;8.474;2023-08-30T05:15:14;12.21;91.87
12907;DHT22;6521;50.498;8.474;2023-08-30T05:17:46;12.23;91.85
12907;DHT22;6521;50.498;8.474;2023-08-30T05:20:18;12.28;91.82
12907;DHT22;6521;50.498;8.474;2023-08-30T05:22:49;12.34;91.90
12907;DHT22;6521;50.498;8.474;2023-08-30T05:25:23;12.34;92.00
12907;DHT22;6521;50.498;8.474;2023-08-30T05:27:54;12.38;91.93
12907;DHT22;6521;50.498;8.474;2023-08-30T05:30:25;12.41;91.86
12907;DHT22;6521;50.498;8.474;2023-08-30T05:32:58;12.40;91.81
12907;DHT22;6521;50.498;8.474;2023-08-30T05:35:46;12.40;91.80
12907;DHT22;6521;50.498;8.474;2023-08-30T05:38:43;12.42;91.77
12907;DHT22;6521;50.498;8.474;2023-08-30T05:41:28;12.42;91.81
12907;DHT22;6521;50.498;8.474;2023-08-30T05:44:00;12.46;91.77
12907;DHT22;6521;50.498;8.474;2023-08-30T05:46:31;12.48;91.77
12907;DHT22;6521;50.498;8.474;2023-08-30T05:49:02;12.49;91.72
12907;DHT22;6521;50.498;8.474;2023-08-30T05:51:33;12.54;91.67
12907;DHT22;6521;50.498;8.474;2023-08-30T05:54:05;12.55;91.72
12907;DHT22;6521;50.498;8.474;2023-08-30T05:56:36;12.56;91.71
12907;DHT22;6521;50.498;8.474;2023-08-30T05:59:07;12.61;91.72
12907;DHT22;6521;50.498;8.474;2023-08-30T06:01:38;12.66;91.71
12907;DHT22;6521;50.498;8.474;2023-08-30T06:04:09;12.68;91.70
12907;DHT22;6521;50.498;8.474;2023-08-30T06:06:42;12.71;91.69
12907;DHT22;6521;50.498;8.474;2023-08-30T06:09:15;12.79;91.70
12907;DHT22;6521;50.498;8.474;2023-08-30T06:11:46;12.81;91.54
12907;DHT22;6521;50.498;8.474;2023-08-30T06:14:16;12.83;91.48
12907;DHT22;6521;50.498;8.474;2023-08-30T06:16:47;12.91;91.49
12907;DHT22;6521;50.498;8.474;2023-08-30T06:19:22;12.96;91.48
12907;DHT22;6521;50.498;8.474;2023-08-30T06:21:53;13.00;91.36
12907;DHT22;6521;50.498;8.474;2023-08-30T06:24:23;13.06;91.27
12907;DHT22;6521;50.498;8.474;2023-08-30T06:26:56;13.10;91.29
12907;DHT22;6521;50.498;8.474;2023-08-30T06:29:27;13.17;91.30
12907;DHT22;6521;50.498;8.474;2023-08-30T06:31:58;13.24;91.26
12907;DHT22;6521;50.498;8.474;2023-08-30T06:34:29;13.30;91.01
12907;DHT22;6521;50.498;8.474;2023-08-30T06:37:00;13.34;90.90
12907;DHT22;6521;50.498;8.474;2023-08-30T06:39:34;13.39;90.72
12907;DHT22;6521;50.498;8.474;2023-08-30T06:42:05;13.41;90.75
12907;DHT22;6521;50.498;8.474;2023-08-30T06:44:36;13.51;90.78
12907;DHT22;6521;50.498;8.474;2023-08-30T06:47:07;13.51;90.51
12907;DHT22;6521;50.498;8.474;2023-08-30T06:49:38;13.55;90.67
12907;DHT22;6521;50.498;8.474;2023-08-30T06:52:08;13.64;90.68
12907;DHT22;6521;50.498;8.474;2023-08-30T06:54:39;13.72;90.81
12907;DHT22;6521;50.498;8.474;2023-08-30T06:57:10;13.81;90.76
12907;DHT22;6521;50.498;8.474;2023-08-30T06:59:40;13.86;90.70
12907;DHT22;6521;50.498;8.474;2023-08-30T07:02:12;13.94;90.71
12907;DHT22;6521;50.498;8.474;2023-08-30T07:04:44;14.01;90.58
12907;DHT22;6521;50.498;8.474;2023-08-30T07:07:14;14.06;90.60
12907;DHT22;6521;50.498;8.474;2023-08-30T07:09:45;14.18;90.38
12907;DHT22;6521;50.498;8.474;2023-08-30T07:12:16;14.25;90.35
12907;DHT22;6521;50.498;8.474;2023-08-30T07:14:46;14.32;89.89
12907;DHT22;6521;50.498;8.474;2023-08-30T07:17:17;14.28;89.61
12907;DHT22;6521;50.498;8.474;2023-08-30T07:19:48;14.36;89.82
12907;DHT22;6521;50.498;8.474;2023-08-30T07:22:19;14.41;89.67
12907;DHT22;6521;50.498;8.474;2023-08-30T07:24:50;14.51;89.66
12907;DHT22;6521;50.498;8.474;2023-08-30T07:27:21;14.64;89.60
12907;DHT22;6521;50.498;8.474;2023-08-30T07:29:54;14.74;89.32
12907;DHT22;6521;50.498;8.474;2023-08-30T07:32:25;14.84;88.96
12907;DHT22;6521;50.498;8.474;2023-08-30T07:34:56;14.92;88.98
12907;DHT22;6521;50.498;8.474;2023-08-30T07:37:27;15.02;88.51
12907;DHT22;6521;50.498;8.474;2023-08-30T07:39:57;15.09;88.35
12907;DHT22;6521;50.498;8.474;2023-08-30T07:42:28;15.19;88.04
12907;DHT22;6521;50.498;8.474;2023-08-30T07:44:58;15.28;87.30
12907;DHT22;6521;50.498;8.474;2023-08-30T07:47:29;15.36;87.12
12907;DHT22;6521;50.498;8.474;2023-08-30T07:50:00;15.42;86.81
12907;DHT22;6521;50.498;8.474;2023-08-30T07:52:30;15.42;85.92
12907;DHT22;6521;50.498;8.474;2023-08-30T07:55:01;15.50;85.26
12907;DHT22;6521;50.498;8.474;2023-08-30T07:57:32;15.53;85.50
12907;DHT22;6521;50.498;8.474;2023-08-30T08:00:04;15.59;85.29
12907;DHT22;6521;50.498;8.474;2023-08-30T08:02:42;15.60;84.17
12907;DHT22;6521;50.498;8.474;2023-08-30T08:05:13;15.53;82.57
12907;DHT22;6521;50.498;8.474;2023-08-30T08:07:44;15.48;83.30
12907;DHT22;6521;50.498;8.474;2023-08-30T08:10:15;15.38;82.68
12907;DHT22;6521;50.498;8.474;2023-08-30T08:12:46;15.49;82.60
12907;DHT22;6521;50.498;8.474;2023-08-30T08:15:17;15.48;82.46
12907;DHT22;6521;50.498;8.474;2023-08-30T08:17:47;15.63;83.92
12907;DHT22;6521;50.498;8.474;2023-08-30T08:20:18;15.79;83.14
12907;DHT22;6521;50.498;8.474;2023-08-30T08:22:49;15.90;82.45
12907;DHT22;6521;50.498;8.474;2023-08-30T08:25:20;15.98;82.41
12907;DHT22;6521;50.498;8.474;2023-08-30T08:27:52;16.07;82.13
12907;DHT22;6521;50.498;8.474;2023-08-30T08:30:24;16.20;82.44
12907;DHT22;6521;50.498;8.474;2023-08-30T08:32:55;16.20;80.43
12907;DHT22;6521;50.498;8.474;2023-08-30T08:35:27;16.27;81.49
12907;DHT22;6521;50.498;8.474;2023-08-30T08:37:58;16.42;81.58
12907;DHT22;6521;50.498;8.474;2023-08-30T08:40:29;16.35;79.85
12907;DHT22;6521;50.498;8.474;2023-08-30T08:43:01;16.47;80.65
12907;DHT22;6521;50.498;8.474;2023-08-30T08:45:35;16.52;79.97
12907;DHT22;6521;50.498;8.474;2023-08-30T08:48:06;16.59;80.22
12907;DHT22;6521;50.498;8.474;2023-08-30T08:50:39;16.64;78.79
12907;DHT22;6521;50.498;8.474;2023-08-30T08:53:10;16.75;79.63
12907;DHT22;6521;50.498;8.474;2023-08-30T08:55:40;16.93;80.09
12907;DHT22;6521;50.498;8.474;2023-08-30T08:58:12;17.02;78.97
12907;DHT22;6521;50.498;8.474;2023-08-30T09:00:44;17.22;77.97
12907;DHT22;6521;50.498;8.474;2023-08-30T09:03:18;17.38;77.65
12907;DHT22;6521;50.498;8.474;2023-08-30T09:05:49;17.53;77.48
12907;DHT22;6521;50.498;8.474;2023-08-30T09:08:21;17.74;75.75
12907;DHT22;6521;50.498;8.474;2023-08-30T09:10:52;17.77;73.37
12907;DHT22;6521;50.498;8.474;2023-08-30T09:13:22;17.79;74.46
12907;DHT22;6521;50.498;8.474;2023-08-30T09:15:53;18.10;74.16
12907;DHT22;6521;50.498;8.474;2023-08-30T09:18:24;18.17;72.15
12907;DHT22;6521;50.498;8.474;2023-08-30T09:21:09;18.22;72.93
12907;DHT22;6521;50.498;8.474;2023-08-30T09:23:40;18.37;71.24
12907;DHT22;6521;50.498;8.474;2023-08-30T09:26:10;18.64;72.94
12907;DHT22;6521;50.498;8.474;2023-08-30T09:28:42;18.74;70.32
12907;DHT22;6521;50.498;8.474;2023-08-30T09:31:17;19.09;71.61
12907;DHT22;6521;50.498;8.474;2023-08-30T09:33:57;19.42;68.50
12907;DHT22;6521;50.498;8.474;2023-08-30T09:36:36;19.88;67.38
12907;DHT22;6521;50.498;8.474;2023-08-30T09:39:11;19.97;65.31
12907;DHT22;6521;50.498;8.474;2023-08-30T09:41:50;19.62;63.83
12907;DHT22;6521;50.498;8.474;2023-08-30T09:44:21;19.28;65.89
12907;DHT22;6521;50.498;8.474;2023-08-30T09:46:54;18.95;63.99
12907;DHT22;6521;50.498;8.474;2023-08-30T09:49:26;18.63;65.61
12907;DHT22;6521;50.498;8.474;2023-08-30T09:51:59;18.39;66.07
12907;DHT22;6521;50.498;8.474;2023-08-30T09:54:31;18.17;66.45
12907;DHT22;6521;50.498;8.474;2023-08-30T09:57:05;18.10;65.82
12907;DHT22;6521;50.498;8.474;2023-08-30T09:59:39;17.99;66.21
12907;DHT22;6521;50.498;8.474;2023-08-30T10:02:10;17.93;66.26
12907;DHT22;6521;50.498;8.474;2023-08-30T10:04:41;18.19;67.51
12907;DHT22;6521;50.498;8.474;2023-08-30T10:07:13;18.97;64.72
12907;DHT22;6521;50.498;8.474;2023-08-30T10:09:44;19.81;63.69
12907;DHT22;6521;50.498;8.474;2023-08-30T10:12:16;20.31;60.23
12907;DHT22;6521;50.498;8.474;2023-08-30T10:14:47;20.34;61.25
12907;DHT22;6521;50.498;8.474;2023-08-30T10:17:18;20.22;59.82
12907;DHT22;6521;50.498;8.474;2023-08-30T10:19:50;20.32;59.71
12907;DHT22;6521;50.498;8.474;2023-08-30T10:22:21;20.08;61.22
12907;DHT22;6521;50.498;8.474;2023-08-30T10:25:02;19.87;61.37
12907;DHT22;6521;50.498;8.474;2023-08-30T10:27:36;19.59;62.86
12907;DHT22;6521;50.498;8.474;2023-08-30T10:30:09;19.35;62.77
12907;DHT22;6521;50.498;8.474;2023-08-30T10:32:42;19.19;63.63
12907;DHT22;6521;50.498;8.474;2023-08-30T10:35:15;19.05;64.65
12907;DHT22;6521;50.498;8.474;2023-08-30T10:37:56;19.12;63.37
12907;DHT22;6521;50.498;8.474;2023-08-30T10:40:27;19.29;62.81
12907;DHT22;6521;50.498;8.474;2023-08-30T10:43:02;19.63;63.60
12907;DHT22;6521;50.498;8.474;2023-08-30T10:45:33;20.24;61.01
12907;DHT22;6521;50.498;8.474;2023-08-30T10:48:04;20.72;58.82
12907;DHT22;6521;50.498;8.474;2023-08-30T10:50:35;20.97;56.82
12907;DHT22;6521;50.498;8.474;2023-08-30T10:53:13;20.56;58.41
12907;DHT22;6521;50.498;8.474;2023-08-30T10:56:03;20.21;56.92
12907;DHT22;6521;50.498;8.474;2023-08-30T10:58:43;19.90;60.40
12907;DHT22;6521;50.498;8.474;2023-08-30T11:01:17;19.65;59.77
12907;DHT22;6521;50.498;8.474;2023-08-30T11:03:49;19.49;61.95
12907;DHT22;6521;50.498;8.474;2023-08-30T11:06:22;19.56;61.07
12907;DHT22;6521;50.498;8.474;2023-08-30T11:08:54;20.11;61.61
12907;DHT22;6521;50.498;8.474;2023-08-30T11:11:25;20.53;59.80
12907;DHT22;6521;50.498;8.474;2023-08-30T11:14:04;20.65;59.59
12907;DHT22;6521;50.498;8.474;2023-08-30T11:16:37;20.51;60.08
12907;DHT22;6521;50.498;8.474;2023-08-30T11:19:10;20.27;60.44
12907;DHT22;6521;50.498;8.474;2023-08-30T11:21:45;19.94;60.84
12907;DHT22;6521;50.498;8.474;2023-08-30T11:24:16;19.60;62.33
12907;DHT22;6521;50.498;8.474;2023-08-30T11:26:52;19.38;63.14
12907;DHT22;6521;50.498;8.474;2023-08-30T11:29:26;19.19;63.69
12907;DHT22;6521;50.498;8.474;2023-08-30T11:31:57;19.07;64.00
12907;DHT22;6521;50.498;8.474;2023-08-30T11:34:28;18.97;64.29
12907;DHT22;6521;50.498;8.474;2023-08-30T11:36:59;19.02;62.81
12907;DHT22;6521;50.498;8.474;2023-08-30T11:39:30;19.12;63.66
12907;DHT22;6521;50.498;8.474;2023-08-30T11:42:03;19.22;61.80
12907;DHT22;6521;50.498;8.474;2023-08-30T11:44:36;19.22;63.36
12907;DHT22;6521;50.498;8.474;2023-08-30T11:47:06;19.40;64.03
12907;DHT22;6521;50.498;8.474;2023-08-30T11:49:37;19.81;63.97
12907;DHT22;6521;50.498;8.474;2023-08-30T11:52:11;20.39;60.98
12907;DHT22;6521;50.498;8.474;2023-08-30T11:54:42;20.71;58.63
12907;DHT22;6521;50.498;8.474;2023-08-30T11:57:13;21.00;57.89
12907;DHT22;6521;50.498;8.474;2023-08-30T11:59:45;21.27;57.24
12907;DHT22;6521;50.498;8.474;2023-08-30T12:02:16;21.40;57.27
12907;DHT22;6521;50.498;8.474;2023-08-30T12:04:47;21.24;53.55
12907;DHT22;6521;50.498;8.474;2023-08-30T12:07:22;21.33;55.75
12907;DHT22;6521;50.498;8.474;2023-08-30T12:10:04;21.38;56.93
12907;DHT22;6521;50.498;8.474;2023-08-30T12:12:35;21.50;55.56
12907;DHT22;6521;50.498;8.474;2023-08-30T12:15:08;21.64;54.98
12907;DHT22;6521;50.498;8.474;2023-08-30T12:17:39;21.23;55.02
12907;DHT22;6521;50.498;8.474;2023-08-30T12:20:17;21.20;54.78
12907;DHT22;6521;50.498;8.474;2023-08-30T12:22:49;21.38;55.30
12907;DHT22;6521;50.498;8.474;2023-08-30T12:25:22;21.92;57.41
12907;DHT22;6521;50.498;8.474;2023-08-30T12:27:57;22.19;54.82
12907;DHT22;6521;50.498;8.474;2023-08-30T12:30:28;22.19;54.49
12907;DHT22;6521;50.498;8.474;2023-08-30T12:33:01;21.99;54.61
12907;DHT22;6521;50.498;8.474;2023-08-30T12:35:33;21.91;54.26
12907;DHT22;6521;50.498;8.474;2023-08-30T12:38:05;21.98;55.17
12907;DHT22;6521;50.498;8.474;2023-08-30T12:40:36;21.86;52.65
12907;DHT22;6521;50.498;8.474;2023-08-30T12:43:07;21.82;53.24
12907;DHT22;6521;50.498;8.474;2023-08-30T12:45:39;21.50;53.29
12907;DHT22;6521;50.498;8.474;2023-08-30T12:48:13;21.64;54.24
12907;DHT22;6521;50.498;8.474;2023-08-30T12:50:48;21.85;53.12
12907;DHT22;6521;50.498;8.474;2023-08-30T12:53:19;21.84;52.75
12907;DHT22;6521;50.498;8.474;2023-08-30T12:55:49;21.54;52.84
12907;DHT22;6521;50.498;8.474;2023-08-30T12:58:20;21.23;54.27
12907;DHT22;6521;50.498;8.474;2023-08-30T13:00:51;20.80;55.59
12907;DHT22;6521;50.498;8.474;2023-08-30T13:03:21;20.31;56.35
12907;DHT22;6521;50.498;8.474;2023-08-30T13:05:52;20.17;58.20
12907;DHT22;6521;50.498;8.474;2023-08-30T13:08:23;19.94;58.75
12907;DHT22;6521;50.498;8.474;2023-08-30T13:10:54;19.79;59.41
12907;DHT22;6521;50.498;8.474;2023-08-30T13:13:24;19.49;59.65
12907;DHT22;6521;50.498;8.474;2023-08-30T13:15:55;19.36;62.95
12907;DHT22;6521;50.498;8.474;2023-08-30T13:18:26;18.95;65.63
12907;DHT22;6521;50.498;8.474;2023-08-30T13:20:57;18.64;69.32
12907;DHT22;6521;50.498;8.474;2023-08-30T13:23:27;18.36;71.01
12907;DHT22;6521;50.498;8.474;2023-08-30T13:25:58;18.22;72.51
12907;DHT22;6521;50.498;8.474;2023-08-30T13:28:31;18.08;72.81
12907;DHT22;6521;50.498;8.474;2023-08-30T13:31:02;17.96;73.12
12907;DHT22;6521;50.498;8.474;2023-08-30T13:33:33;17.95;73.05
12907;DHT22;6521;50.498;8.474;2023-08-30T13:36:03;18.01;73.01
12907;DHT22;6521;50.498;8.474;2023-08-30T13:38:34;18.10;73.14
12907;DHT22;6521;50.498;8.474;2023-08-30T13:41:05;18.16;73.93
12907;DHT22;6521;50.498;8.474;2023-08-30T13:43:35;18.25;73.39
12907;DHT22;6521;50.498;8.474;2023-08-30T13:46:06;18.29;72.59
12907;DHT22;6521;50.498;8.474;2023-08-30T13:48:37;18.32;71.92
12907;DHT22;6521;50.498;8.474;2023-08-30T13:51:09;18.46;71.99
12907;DHT22;6521;50.498;8.474;2023-08-30T13:53:39;18.60;72.71
12907;DHT22;6521;50.498;8.474;2023-08-30T13:56:10;18.60;70.49
12907;DHT22;6521;50.498;8.474;2023-08-30T13:58:41;18.63;69.68
12907;DHT22;6521;50.498;8.474;2023-08-30T14:01:12;18.53;68.29
12907;DHT22;6521;50.498;8.474;2023-08-30T14:03:43;18.53;67.99
12907;DHT22;6521;50.498;8.474;2023-08-30T14:06:14;18.46;68.42
12907;DHT22;6521;50.498;8.474;2023-08-30T14:08:45;18.43;67.67
12907;DHT22;6521;50.498;8.474;2023-08-30T14:11:16;18.49;67.59
12907;DHT22;6521;50.498;8.474;2023-08-30T14:13:46;18.67;68.85
12907;DHT22;6521;50.498;8.474;2023-08-30T14:16:17;18.97;69.07
12907;DHT22;6521;50.498;8.474;2023-08-30T14:18:48;19.45;68.34
12907;DHT22;6521;50.498;8.474;2023-08-30T14:21:20;19.63;65.71
12907;DHT22;6521;50.498;8.474;2023-08-30T14:23:50;19.69;65.72
12907;DHT22;6521;50.498;8.474;2023-08-30T14:26:21;19.93;65.66
12907;DHT22;6521;50.498;8.474;2023-08-30T14:28:52;20.34;66.00
12907;DHT22;6521;50.498;8.474;2023-08-30T14:31:22;20.79;63.76
12907;DHT22;6521;50.498;8.474;2023-08-30T14:33:56;20.77;61.17
12907;DHT22;6521;50.498;8.474;2023-08-30T14:36:28;20.99;59.94
12907;DHT22;6521;50.498;8.474;2023-08-30T14:38:58;20.85;58.05
12907;DHT22;6521;50.498;8.474;2023-08-30T14:41:30;20.28;60.37
12907;DHT22;6521;50.498;8.474;2023-08-30T14:44:03;20.28;62.80
12907;DHT22;6521;50.498;8.474;2023-08-30T14:46:34;20.39;61.27
12907;DHT22;6521;50.498;8.474;2023-08-30T14:49:05;20.44;60.85
12907;DHT22;6521;50.498;8.474;2023-08-30T14:51:38;20.45;61.02
12907;DHT22;6521;50.498;8.474;2023-08-30T14:54:08;20.55;62.82
12907;DHT22;6521;50.498;8.474;2023-08-30T14:56:39;20.73;61.40
12907;DHT22;6521;50.498;8.474;2023-08-30T14:59:10;20.83;60.31
12907;DHT22;6521;50.498;8.474;2023-08-30T15:01:40;20.89;60.40
12907;DHT22;6521;50.498;8.474;2023-08-30T15:04:12;20.64;60.76
12907;DHT22;6521;50.498;8.474;2023-08-30T15:06:43;20.56;58.20
12907;DHT22;6521;50.498;8.474;2023-08-30T15:09:13;20.49;58.04
12907;DHT22;6521;50.498;8.474;2023-08-30T15:11:48;20.24;57.76
12907;DHT22;6521;50.498;8.474;2023-08-30T15:14:19;20.18;57.84
12907;DHT22;6521;50.498;8.474;2023-08-30T15:16:50;20.22;57.74
12907;DHT22;6521;50.498;8.474;2023-08-30T15:19:21;20.20;57.12
12907;DHT22;6521;50.498;8.474;2023-08-30T15:21:52;20.38;58.25
12907;DHT22;6521;50.498;8.474;2023-08-30T15:24:23;20.55;57.64
12907;DHT22;6521;50.498;8.474;2023-08-30T15:26:54;20.66;56.10
12907;DHT22;6521;50.498;8.474;2023-08-30T15:29:24;20.48;57.72
12907;DHT22;6521;50.498;8.474;2023-08-30T15:31:55;20.28;56.79
12907;DHT22;6521;50.498;8.474;2023-08-30T15:34:26;20.20;59.28
12907;DHT22;6521;50.498;8.474;2023-08-30T15:36:57;20.04;59.36
12907;DHT22;6521;50.498;8.474;2023-08-30T15:39:28;19.80;59.66
12907;DHT22;6521;50.498;8.474;2023-08-30T15:41:59;19.70;60.74
12907;DHT22;6521;50.498;8.474;2023-08-30T15:44:29;19.58;60.63
12907;DHT22;6521;50.498;8.474;2023-08-30T15:47:00;19.39;61.34
12907;DHT22;6521;50.498;8.474;2023-08-30T15:49:31;19.22;61.97
12907;DHT22;6521;50.498;8.474;2023-08-30T15:52:02;19.08;61.83
12907;DHT22;6521;50.498;8.474;2023-08-30T15:54:33;18.95;62.57
12907;DHT22;6521;50.498;8.474;2023-08-30T15:57:04;18.83;65.62
12907;DHT22;6521;50.498;8.474;2023-08-30T15:59:34;18.51;67.63
12907;DHT22;6521;50.498;8.474;2023-08-30T16:02:05;18.17;70.02
12907;DHT22;6521;50.498;8.474;2023-08-30T16:04:36;17.92;72.53
12907;DHT22;6521;50.498;8.474;2023-08-30T16:07:09;17.61;74.10
12907;DHT22;6521;50.498;8.474;2023-08-30T16:09:40;17.43;75.31
12907;DHT22;6521;50.498;8.474;2023-08-30T16:12:12;17.27;76.82
12907;DHT22;6521;50.498;8.474;2023-08-30T16:14:44;17.14;77.23